sensor_id;sensor_type;location;lat;lon;timestamp;pressure;altitude;pressure_sealevel;temperature;humidity
35551;BME280;21655;46.056;13.616;2023-05-19T00:00:51;100713.34;;;16.07;100.00
35551;BME280;21655;46.056;13.616;2023-05-19T00:03:17;100703.66;;;16.10;100.00
35551;BME280;21655;46.056;13.616;2023-05-19T00:05:47;100707.13;;;16.12;100.00
35551;BME280;21655;46.056;13.616;2023-05-19T00:08:15;100710.16;;;16.10;100.00
35551;BME280;21655;46.056;13.616;2023-05-19T00:10:41;100704.75;;;16.09;100.00
35551;BME280;21655;46.056;13.616;2023-05-19T00:13:07;100698.91;;;16.04;100.00
35551;BME280;21655;46.056;13.616;2023-05-19T00:15:33;100700.19;;;16.01;100.00
35551;BME280;21655;46.056;13.616;2023-05-19T00:17:58;100695.47;;;16.02;100.00
35551;BME280;21655;46.056;13.616;2023-05-19T00:20:24;100687.25;;;16.00;100.00
35551;BME280;21655;46.056;13.616;2023-05-19T00:22:49;100676.47;;;15.91;100.00
35551;BME280;21655;46.056;13.616;2023-05-19T00:25:15;100689.38;;;15.92;100.00
35551;BME280;21655;46.056;13.616;2023-05-19T00:27:41;100686.38;;;15.93;100.00
35551;BME280;21655;46.056;13.616;2023-05-19T00:30:07;100683.34;;;15.95;100.00
35551;BME280;21655;46.056;13.616;2023-05-19T00:32:33;100698.63;;;15.92;100.00
35551;BME280;21655;46.056;13.616;2023-05-19T00:34:59;100703.34;;;15.92;100.00
35551;BME280;21655;46.056;13.616;2023-05-19T00:37:25;100688.72;;;15.90;100.00
35551;BME280;21655;46.056;13.616;2023-05-19T00:39:50;100705.31;;;15.91;100.00
35551;BME280;21655;46.056;13.616;2023-05-19T00:42:16;100697.75;;;15.92;100.00
35551;BME280;21655;46.056;13.616;2023-05-19T00:44:41;100693.19;;;15.84;100.00
35551;BME280;21655;46.056;13.616;2023-05-19T00:47:07;100699.00;;;15.83;100.00
35551;BME280;21655;46.056;13.616;2023-05-19T00:49:33;100691.00;;;15.80;100.00
35551;BME280;21655;46.056;13.616;2023-05-19T00:52:00;100698.97;;;15.76;100.00
35551;BME280;21655;46.056;13.616;2023-05-19T00:54:26;100694.44;;;15.75;100.00
35551;BME280;21655;46.056;13.616;2023-05-19T00:56:53;100706.72;;;15.81;100.00
35551;BME280;21655;46.056;13.616;2023-05-19T00:59:19;100694.88;;;15.79;100.00
35551;BME280;21655;46.056;13.616;2023-05-19T01:01:46;100708.00;;;15.78;100.00
35551;BME280;21655;46.056;13.616;2023-05-19T01:04:15;100697.25;;;15.75;100.00
35551;BME280;21655;46.056;13.616;2023-05-19T01:06:41;100697.19;;;15.69;100.00
35551;BME280;21655;46.056;13.616;2023-05-19T01:09:07;100695.25;;;15.69;100.00
35551;BME280;21655;46.056;13.616;2023-05-19T01:11:33;100703.22;;;15.72;100.00
35551;BME280;21655;46.056;13.616;2023-05-19T01:13:59;100690.13;;;15.73;100.00
35551;BME280;21655;46.056;13.616;2023-05-19T01:16:37;100702.38;;;15.72;100.00
35551;BME280;21655;46.056;13.616;2023-05-19T01:28:14;100708.34;;;15.62;100.00
35551;BME280;21655;46.056;13.616;2023-05-19T01:30:42;100699.94;;;15.62;100.00
35551;BME280;21655;46.056;13.616;2023-05-19T01:33:12;100709.84;;;15.65;100.00
35551;BME280;21655;46.056;13.616;2023-05-19T01:35:42;100711.19;;;15.69;100.00
35551;BME280;21655;46.056;13.616;2023-05-19T01:38:09;100699.34;;;15.67;100.00
35551;BME280;21655;46.056;13.616;2023-05-19T01:40:37;100707.91;;;15.65;100.00
35551;BME280;21655;46.056;13.616;2023-05-19T01:43:02;100705.72;;;15.61;100.00
35551;BME280;21655;46.056;13.616;2023-05-19T01:45:30;100677.72;;;15.54;100.00
35551;BME280;21655;46.056;13.616;2023-05-19T01:47:59;100681.88;;;15.58;100.00
35551;BME280;21655;46.056;13.616;2023-05-19T01:50:24;100691.50;;;15.56;100.00
35551;BME280;21655;46.056;13.616;2023-05-19T01:52:50;100700.50;;;15.51;100.00
35551;BME280;21655;46.056;13.616;2023-05-19T01:55:16;100701.16;;;15.53;100.00
35551;BME280;21655;46.056;13.616;2023-05-19T02:05:38;100697.94;;;15.50;100.00
35551;BME280;21655;46.056;13.616;2023-05-19T02:08:30;100691.22;;;15.44;100.00
35551;BME280;21655;46.056;13.616;2023-05-19T02:11:09;100714.38;;;15.38;100.00
35551;BME280;21655;46.056;13.616;2023-05-19T02:13:38;100702.28;;;15.31;100.00
35551;BME280;21655;46.056;13.616;2023-05-19T02:16:07;100707.28;;;15.36;100.00
35551;BME280;21655;46.056;13.616;2023-05-19T02:18:33;100696.50;;;15.33;100.00
35551;BME280;21655;46.056;13.616;2023-05-19T02:21:00;100705.28;;;15.30;100.00
35551;BME280;21655;46.056;13.616;2023-05-19T02:23:25;100707.38;;;15.28;100.00
35551;BME280;21655;46.056;13.616;2023-05-19T02:25:51;100696.69;;;15.31;100.00
35551;BME280;21655;46.056;13.616;2023-05-19T02:28:16;100708.06;;;15.30;100.00
35551;BME280;21655;46.056;13.616;2023-05-19T02:30:42;100700.94;;;15.27;100.00
35551;BME280;21655;46.056;13.616;2023-05-19T02:33:07;100704.41;;;15.29;100.00
35551;BME280;21655;46.056;13.616;2023-05-19T02:35:35;100708.44;;;15.27;100.00
35551;BME280;21655;46.056;13.616;2023-05-19T02:38:01;100706.72;;;15.26;100.00
35551;BME280;21655;46.056;13.616;2023-05-19T02:40:26;100711.44;;;15.25;100.00
35551;BME280;21655;46.056;13.616;2023-05-19T02:42:52;100712.53;;;15.24;100.00
35551;BME280;21655;46.056;13.616;2023-05-19T02:45:17;100707.78;;;15.25;100.00
35551;BME280;21655;46.056;13.616;2023-05-19T02:47:43;100708.19;;;15.22;100.00
35551;BME280;21655;46.056;13.616;2023-05-19T02:50:08;100710.75;;;15.17;100.00
35551;BME280;21655;46.056;13.616;2023-05-19T02:52:34;100701.28;;;15.18;100.00
35551;BME280;21655;46.056;13.616;2023-05-19T02:54:59;100703.34;;;15.09;100.00
35551;BME280;21655;46.056;13.616;2023-05-19T02:57:25;100703.41;;;15.16;100.00
35551;BME280;21655;46.056;13.616;2023-05-19T02:59:51;100709.78;;;15.10;100.00
35551;BME280;21655;46.056;13.616;2023-05-19T03:02:17;100696.63;;;15.04;100.00
35551;BME280;21655;46.056;13.616;2023-05-19T03:04:42;100696.63;;;15.04;100.00
35551;BME280;21655;46.056;13.616;2023-05-19T03:07:08;100696.81;;;15.02;100.00
35551;BME280;21655;46.056;13.616;2023-05-19T03:09:37;100697.56;;;15.11;100.00
35551;BME280;21655;46.056;13.616;2023-05-19T03:12:03;100695.34;;;15.06;100.00
35551;BME280;21655;46.056;13.616;2023-05-19T03:14:31;100689.09;;;15.04;100.00
35551;BME280;21655;46.056;13.616;2023-05-19T03:16:57;100689.50;;;15.02;100.00
35551;BME280;21655;46.056;13.616;2023-05-19T03:19:24;100695.31;;;15.00;100.00
35551;BME280;21655;46.056;13.616;2023-05-19T03:21:49;100687.19;;;15.05;100.00
35551;BME280;21655;46.056;13.616;2023-05-19T03:24:15;100686.59;;;15.09;100.00
35551;BME280;21655;46.056;13.616;2023-05-19T03:26:40;100699.28;;;15.12;100.00
35551;BME280;21655;46.056;13.616;2023-05-19T03:29:06;100683.66;;;15.17;100.00
35551;BME280;21655;46.056;13.616;2023-05-19T03:31:32;100694.41;;;15.20;100.00
35551;BME280;21655;46.056;13.616;2023-05-19T03:33:57;100699.09;;;15.13;100.00
35551;BME280;21655;46.056;13.616;2023-05-19T03:36:23;100699.09;;;15.13;100.00
35551;BME280;21655;46.056;13.616;2023-05-19T03:38:48;100697.44;;;15.19;100.00
35551;BME280;21655;46.056;13.616;2023-05-19T03:41:14;100693.34;;;15.21;100.00
35551;BME280;21655;46.056;13.616;2023-05-19T03:43:40;100684.97;;;15.21;100.00
35551;BME280;21655;46.056;13.616;2023-05-19T03:46:05;100686.50;;;15.24;100.00
35551;BME280;21655;46.056;13.616;2023-05-19T03:48:30;100678.53;;;15.21;100.00
35551;BME280;21655;46.056;13.616;2023-05-19T03:50:56;100686.31;;;15.25;100.00
35551;BME280;21655;46.056;13.616;2023-05-19T03:53:22;100678.22;;;15.30;100.00
35551;BME280;21655;46.056;13.616;2023-05-19T03:55:48;100682.97;;;15.36;100.00
35551;BME280;21655;46.056;13.616;2023-05-19T03:58:14;100682.19;;;15.42;100.00
35551;BME280;21655;46.056;13.616;2023-05-19T04:00:40;100672.31;;;15.46;100.00
35551;BME280;21655;46.056;13.616;2023-05-19T04:03:06;100689.13;;;15.53;100.00
35551;BME280;21655;46.056;13.616;2023-05-19T04:05:32;100670.69;;;15.58;100.00
35551;BME280;21655;46.056;13.616;2023-05-19T04:07:58;100674.97;;;15.61;100.00
35551;BME280;21655;46.056;13.616;2023-05-19T04:10:24;100673.91;;;15.62;100.00
35551;BME280;21655;46.056;13.616;2023-05-19T04:12:49;100678.66;;;15.61;100.00
35551;BME280;21655;46.056;13.616;2023-05-19T04:15:15;100679.97;;;15.65;100.00
35551;BME280;21655;46.056;13.616;2023-05-19T04:17:40;100669.91;;;15.71;100.00
35551;BME280;21655;46.056;13.616;2023-05-19T04:20:06;100678.28;;;15.71;100.00
35551;BME280;21655;46.056;13.616;2023-05-19T04:22:32;100680.84;;;15.66;100.00
35551;BME280;21655;46.056;13.616;2023-05-19T04:24:57;100672.47;;;15.72;100.00
35551;BME280;21655;46.056;13.616;2023-05-19T04:27:24;100681.13;;;15.77;100.00
35551;BME280;21655;46.056;13.616;2023-05-19T04:29:50;100685.19;;;15.75;100.00
35551;BME280;21655;46.056;13.616;2023-05-19T04:32:15;100684.81;;;15.84;100.00
35551;BME280;21655;46.056;13.616;2023-05-19T04:34:43;100690.34;;;15.78;100.00
35551;BME280;21655;46.056;13.616;2023-05-19T04:37:12;100691.69;;;15.82;100.00
35551;BME280;21655;46.056;13.616;2023-05-19T04:39:39;100697.38;;;16.01;100.00
35551;BME280;21655;46.056;13.616;2023-05-19T04:42:08;100697.59;;;16.00;100.00
35551;BME280;21655;46.056;13.616;2023-05-19T04:44:34;100695.69;;;16.07;100.00
35551;BME280;21655;46.056;13.616;2023-05-19T04:47:00;100700.88;;;16.10;100.00
35551;BME280;21655;46.056;13.616;2023-05-19T04:49:26;100692.50;;;16.16;100.00
35551;BME280;21655;46.056;13.616;2023-05-19T04:51:51;100691.28;;;16.25;100.00
35551;BME280;21655;46.056;13.616;2023-05-19T04:54:17;100678.41;;;16.37;100.00
35551;BME280;21655;46.056;13.616;2023-05-19T04:56:42;100684.94;;;16.51;100.00
35551;BME280;21655;46.056;13.616;2023-05-19T04:59:08;100688.84;;;16.69;100.00
35551;BME280;21655;46.056;13.616;2023-05-19T05:01:34;100692.34;;;16.84;100.00
35551;BME280;21655;46.056;13.616;2023-05-19T05:04:04;100686.94;;;16.70;100.00
35551;BME280;21655;46.056;13.616;2023-05-19T05:06:30;100685.00;;;16.83;100.00
35551;BME280;21655;46.056;13.616;2023-05-19T05:08:55;100691.09;;;17.19;100.00
35551;BME280;21655;46.056;13.616;2023-05-19T05:11:21;100687.25;;;17.46;100.00
35551;BME280;21655;46.056;13.616;2023-05-19T05:13:47;100687.00;;;17.54;100.00
35551;BME280;21655;46.056;13.616;2023-05-19T05:16:13;100695.84;;;17.44;100.00
35551;BME280;21655;46.056;13.616;2023-05-19T05:18:39;100692.81;;;17.33;100.00
35551;BME280;21655;46.056;13.616;2023-05-19T05:21:05;100691.75;;;17.14;100.00
35551;BME280;21655;46.056;13.616;2023-05-19T05:23:31;100686.13;;;17.27;100.00
35551;BME280;21655;46.056;13.616;2023-05-19T05:25:57;100688.28;;;17.25;100.00
35551;BME280;21655;46.056;13.616;2023-05-19T05:28:23;100677.50;;;17.29;100.00
35551;BME280;21655;46.056;13.616;2023-05-19T05:30:48;100675.16;;;17.32;100.00
35551;BME280;21655;46.056;13.616;2023-05-19T05:33:15;100686.16;;;17.73;100.00
35551;BME280;21655;46.056;13.616;2023-05-19T05:35:41;100673.13;;;17.98;100.00
35551;BME280;21655;46.056;13.616;2023-05-19T05:38:07;100691.03;;;17.97;100.00
35551;BME280;21655;46.056;13.616;2023-05-19T05:40:32;100691.22;;;18.02;100.00
35551;BME280;21655;46.056;13.616;2023-05-19T05:42:58;100697.53;;;17.97;100.00
35551;BME280;21655;46.056;13.616;2023-05-19T05:45:24;100701.59;;;18.14;100.00
35551;BME280;21655;46.056;13.616;2023-05-19T05:47:50;100681.06;;;18.07;100.00
35551;BME280;21655;46.056;13.616;2023-05-19T05:50:16;100693.19;;;18.08;100.00
35551;BME280;21655;46.056;13.616;2023-05-19T05:52:45;100709.41;;;17.99;100.00
35551;BME280;21655;46.056;13.616;2023-05-19T05:55:11;100711.78;;;17.76;100.00
35551;BME280;21655;46.056;13.616;2023-05-19T05:57:36;100715.28;;;17.65;100.00
35551;BME280;21655;46.056;13.616;2023-05-19T06:00:03;100709.88;;;17.70;100.00
35551;BME280;21655;46.056;13.616;2023-05-19T06:02:34;100727.34;;;17.72;100.00
35551;BME280;21655;46.056;13.616;2023-05-19T06:05:00;100707.06;;;17.83;100.00
35551;BME280;21655;46.056;13.616;2023-05-19T06:07:26;100722.34;;;18.07;100.00
35551;BME280;21655;46.056;13.616;2023-05-19T06:09:52;100717.53;;;18.20;100.00
35551;BME280;21655;46.056;13.616;2023-05-19T06:12:17;100718.63;;;18.13;100.00
35551;BME280;21655;46.056;13.616;2023-05-19T06:14:42;100719.88;;;18.23;100.00
35551;BME280;21655;46.056;13.616;2023-05-19T06:17:08;100730.13;;;17.98;100.00
35551;BME280;21655;46.056;13.616;2023-05-19T06:19:33;100712.59;;;18.03;100.00
35551;BME280;21655;46.056;13.616;2023-05-19T06:21:59;100715.19;;;18.04;100.00
35551;BME280;21655;46.056;13.616;2023-05-19T06:24:24;100729.22;;;18.30;100.00
35551;BME280;21655;46.056;13.616;2023-05-19T06:26:51;100735.91;;;18.29;100.00
35551;BME280;21655;46.056;13.616;2023-05-19T06:29:16;100745.06;;;18.62;100.00
35551;BME280;21655;46.056;13.616;2023-05-19T06:31:41;100744.41;;;18.60;100.00
35551;BME280;21655;46.056;13.616;2023-05-19T06:34:07;100740.38;;;18.43;100.00
35551;BME280;21655;46.056;13.616;2023-05-19T06:36:34;100733.44;;;18.52;100.00
35551;BME280;21655;46.056;13.616;2023-05-19T06:39:00;100739.25;;;18.51;100.00
35551;BME280;21655;46.056;13.616;2023-05-19T06:41:25;100739.72;;;18.48;100.00
35551;BME280;21655;46.056;13.616;2023-05-19T06:43:50;100735.09;;;18.66;100.00
35551;BME280;21655;46.056;13.616;2023-05-19T06:46:16;100735.56;;;18.63;100.00
35551;BME280;21655;46.056;13.616;2023-05-19T06:48:41;100738.66;;;18.86;100.00
35551;BME280;21655;46.056;13.616;2023-05-19T06:51:07;100741.84;;;18.59;100.00
35551;BME280;21655;46.056;13.616;2023-05-19T06:53:34;100746.66;;;18.39;100.00
35551;BME280;21655;46.056;13.616;2023-05-19T06:55:59;100748.09;;;18.61;100.00
35551;BME280;21655;46.056;13.616;2023-05-19T06:58:25;100753.38;;;18.82;100.00
35551;BME280;21655;46.056;13.616;2023-05-19T07:00:51;100761.06;;;18.55;100.00
35551;BME280;21655;46.056;13.616;2023-05-19T07:03:16;100754.63;;;18.92;100.00
35551;BME280;21655;46.056;13.616;2023-05-19T07:05:41;100743.47;;;19.47;100.00
35551;BME280;21655;46.056;13.616;2023-05-19T07:08:07;100754.59;;;19.36;100.00
35551;BME280;21655;46.056;13.616;2023-05-19T07:10:32;100765.47;;;19.57;100.00
35551;BME280;21655;46.056;13.616;2023-05-19T07:12:58;100753.41;;;19.50;100.00
35551;BME280;21655;46.056;13.616;2023-05-19T07:15:23;100748.63;;;19.75;100.00
35551;BME280;21655;46.056;13.616;2023-05-19T07:17:49;100739.47;;;20.28;100.00
35551;BME280;21655;46.056;13.616;2023-05-19T07:20:14;100735.72;;;20.88;100.00
35551;BME280;21655;46.056;13.616;2023-05-19T07:22:40;100740.94;;;20.67;100.00
35551;BME280;21655;46.056;13.616;2023-05-19T07:25:06;100730.66;;;20.43;100.00
35551;BME280;21655;46.056;13.616;2023-05-19T07:27:32;100739.28;;;20.77;100.00
35551;BME280;21655;46.056;13.616;2023-05-19T07:29:57;100730.84;;;20.59;100.00
35551;BME280;21655;46.056;13.616;2023-05-19T07:32:23;100745.78;;;20.42;100.00
35551;BME280;21655;46.056;13.616;2023-05-19T07:34:49;100737.38;;;19.50;100.00
35551;BME280;21655;46.056;13.616;2023-05-19T07:37:14;100749.00;;;19.29;100.00
35551;BME280;21655;46.056;13.616;2023-05-19T07:39:41;100744.09;;;19.49;100.00
35551;BME280;21655;46.056;13.616;2023-05-19T07:42:06;100746.06;;;19.98;100.00
35551;BME280;21655;46.056;13.616;2023-05-19T07:44:31;100750.38;;;20.43;100.00
35551;BME280;21655;46.056;13.616;2023-05-19T07:46:57;100753.25;;;20.54;100.00
35551;BME280;21655;46.056;13.616;2023-05-19T07:49:22;100750.03;;;20.69;100.00
35551;BME280;21655;46.056;13.616;2023-05-19T07:51:48;100752.44;;;20.29;100.00
35551;BME280;21655;46.056;13.616;2023-05-19T07:54:13;100758.34;;;20.46;100.00
35551;BME280;21655;46.056;13.616;2023-05-19T07:56:39;100755.03;;;20.13;100.00
35551;BME280;21655;46.056;13.616;2023-05-19T07:59:04;100751.13;;;20.32;100.00
35551;BME280;21655;46.056;13.616;2023-05-19T08:01:32;100763.16;;;20.21;100.00
35551;BME280;21655;46.056;13.616;2023-05-19T08:03:57;100769.72;;;20.15;100.00
35551;BME280;21655;46.056;13.616;2023-05-19T08:06:23;100776.56;;;19.76;100.00
35551;BME280;21655;46.056;13.616;2023-05-19T08:08:49;100766.03;;;19.65;100.00
35551;BME280;21655;46.056;13.616;2023-05-19T08:11:14;100776.50;;;19.83;100.00
35551;BME280;21655;46.056;13.616;2023-05-19T08:13:40;100771.81;;;19.77;100.00
35551;BME280;21655;46.056;13.616;2023-05-19T08:16:06;100768.38;;;19.93;100.00
35551;BME280;21655;46.056;13.616;2023-05-19T08:18:31;100764.94;;;19.91;100.00
35551;BME280;21655;46.056;13.616;2023-05-19T08:20:56;100772.66;;;19.77;100.00
35551;BME280;21655;46.056;13.616;2023-05-19T08:23:22;100749.88;;;20.10;100.00
35551;BME280;21655;46.056;13.616;2023-05-19T08:25:48;100769.00;;;19.77;100.00
35551;BME280;21655;46.056;13.616;2023-05-19T08:28:13;100775.69;;;19.76;100.00
35551;BME280;21655;46.056;13.616;2023-05-19T08:30:38;100766.59;;;20.23;100.00
35551;BME280;21655;46.056;13.616;2023-05-19T08:33:04;100779.75;;;20.11;100.00
35551;BME280;21655;46.056;13.616;2023-05-19T08:35:30;100774.00;;;20.60;100.00
35551;BME280;21655;46.056;13.616;2023-05-19T08:37:55;100766.06;;;20.50;100.00
35551;BME280;21655;46.056;13.616;2023-05-19T08:40:21;100759.97;;;21.48;100.00
35551;BME280;21655;46.056;13.616;2023-05-19T08:42:47;100765.09;;;22.72;91.79
35551;BME280;21655;46.056;13.616;2023-05-19T08:45:13;100762.00;;;21.70;100.00
35551;BME280;21655;46.056;13.616;2023-05-19T08:47:45;100750.28;;;21.96;96.71
35551;BME280;21655;46.056;13.616;2023-05-19T08:50:12;100764.84;;;21.82;94.65
35551;BME280;21655;46.056;13.616;2023-05-19T08:52:47;100760.03;;;21.01;100.00
35551;BME280;21655;46.056;13.616;2023-05-19T08:55:26;100772.28;;;21.24;100.00
35551;BME280;21655;46.056;13.616;2023-05-19T08:57:53;100756.59;;;20.99;100.00
35551;BME280;21655;46.056;13.616;2023-05-19T09:00:19;100771.00;;;20.91;100.00
35551;BME280;21655;46.056;13.616;2023-05-19T09:02:47;100758.53;;;20.80;100.00
35551;BME280;21655;46.056;13.616;2023-05-19T09:05:15;100752.38;;;20.54;100.00
35551;BME280;21655;46.056;13.616;2023-05-19T09:07:42;100750.41;;;20.72;100.00
35551;BME280;21655;46.056;13.616;2023-05-19T09:10:07;100757.06;;;20.42;100.00
35551;BME280;21655;46.056;13.616;2023-05-19T09:12:33;100747.88;;;20.82;100.00
35551;BME280;21655;46.056;13.616;2023-05-19T09:14:59;100753.00;;;20.92;100.00
35551;BME280;21655;46.056;13.616;2023-05-19T09:17:25;100758.41;;;20.57;100.00
35551;BME280;21655;46.056;13.616;2023-05-19T09:19:50;100741.56;;;20.69;100.00
35551;BME280;21655;46.056;13.616;2023-05-19T09:22:16;100756.06;;;20.90;100.00
35551;BME280;21655;46.056;13.616;2023-05-19T09:24:43;100751.44;;;21.25;100.00
35551;BME280;21655;46.056;13.616;2023-05-19T09:27:09;100757.84;;;21.02;100.00
35551;BME280;21655;46.056;13.616;2023-05-19T09:29:38;100748.38;;;20.97;100.00
35551;BME280;21655;46.056;13.616;2023-05-19T09:32:03;100750.47;;;21.31;100.00
35551;BME280;21655;46.056;13.616;2023-05-19T09:34:30;100748.16;;;21.80;100.00
35551;BME280;21655;46.056;13.616;2023-05-19T09:36:55;100746.09;;;22.10;94.05
35551;BME280;21655;46.056;13.616;2023-05-19T09:39:22;100739.06;;;21.67;93.27
35551;BME280;21655;46.056;13.616;2023-05-19T09:41:54;100737.03;;;21.56;99.10
35551;BME280;21655;46.056;13.616;2023-05-19T09:44:24;100747.34;;;21.09;100.00
35551;BME280;21655;46.056;13.616;2023-05-19T09:46:53;100756.81;;;20.97;100.00
35551;BME280;21655;46.056;13.616;2023-05-19T09:49:20;100742.63;;;21.03;100.00
35551;BME280;21655;46.056;13.616;2023-05-19T09:51:56;100758.97;;;21.13;100.00
35551;BME280;21655;46.056;13.616;2023-05-19T09:54:23;100755.19;;;20.72;100.00
35551;BME280;21655;46.056;13.616;2023-05-19T09:59:24;100742.06;;;20.84;100.00
35551;BME280;21655;46.056;13.616;2023-05-19T10:01:54;100751.47;;;20.60;100.00
35551;BME280;21655;46.056;13.616;2023-05-19T10:04:21;100743.63;;;20.44;100.00
35551;BME280;21655;46.056;13.616;2023-05-19T10:06:49;100753.47;;;20.17;100.00
35551;BME280;21655;46.056;13.616;2023-05-19T10:09:23;100744.47;;;20.44;100.00
35551;BME280;21655;46.056;13.616;2023-05-19T10:11:56;100747.97;;;20.58;100.00
35551;BME280;21655;46.056;13.616;2023-05-19T10:14:27;100746.75;;;20.54;100.00
35551;BME280;21655;46.056;13.616;2023-05-19T10:16:54;100753.78;;;20.81;100.00
35551;BME280;21655;46.056;13.616;2023-05-19T10:19:22;100748.25;;;20.56;100.00
35551;BME280;21655;46.056;13.616;2023-05-19T10:21:48;100759.97;;;20.71;100.00
35551;BME280;21655;46.056;13.616;2023-05-19T10:24:13;100750.09;;;20.98;100.00
35551;BME280;21655;46.056;13.616;2023-05-19T10:26:45;100747.22;;;21.16;100.00
35551;BME280;21655;46.056;13.616;2023-05-19T10:29:15;100745.50;;;21.15;100.00
35551;BME280;21655;46.056;13.616;2023-05-19T10:31:43;100759.19;;;21.29;100.00
35551;BME280;21655;46.056;13.616;2023-05-19T10:36:54;100726.91;;;21.25;100.00
35551;BME280;21655;46.056;13.616;2023-05-19T10:39:33;100740.09;;;21.95;100.00
35551;BME280;21655;46.056;13.616;2023-05-19T10:45:08;100750.63;;;21.88;100.00
35551;BME280;21655;46.056;13.616;2023-05-19T10:47:35;100752.59;;;21.88;100.00
35551;BME280;21655;46.056;13.616;2023-05-19T10:50:01;100737.34;;;22.23;98.92
35551;BME280;21655;46.056;13.616;2023-05-19T10:52:28;100740.09;;;21.54;96.83
35551;BME280;21655;46.056;13.616;2023-05-19T10:54:55;100739.56;;;22.21;95.03
35551;BME280;21655;46.056;13.616;2023-05-19T10:57:27;100735.63;;;22.22;97.73
35551;BME280;21655;46.056;13.616;2023-05-19T10:59:55;100730.38;;;22.14;94.76
35551;BME280;21655;46.056;13.616;2023-05-19T11:02:47;100734.19;;;22.20;93.40
35551;BME280;21655;46.056;13.616;2023-05-19T11:05:27;100728.91;;;22.46;91.92
35551;BME280;21655;46.056;13.616;2023-05-19T11:07:58;100723.25;;;22.46;91.72
35551;BME280;21655;46.056;13.616;2023-05-19T11:10:31;100723.13;;;22.18;94.67
35551;BME280;21655;46.056;13.616;2023-05-19T11:12:57;100719.81;;;21.98;94.14
35551;BME280;21655;46.056;13.616;2023-05-19T11:15:26;100707.16;;;21.78;93.40
35551;BME280;21655;46.056;13.616;2023-05-19T11:17:52;100713.28;;;22.21;95.89
35551;BME280;21655;46.056;13.616;2023-05-19T11:20:27;100695.59;;;22.14;98.37
35551;BME280;21655;46.056;13.616;2023-05-19T11:25:49;100686.16;;;21.85;97.51
35551;BME280;21655;46.056;13.616;2023-05-19T11:28:17;100701.56;;;21.60;100.00
35551;BME280;21655;46.056;13.616;2023-05-19T11:30:50;100701.38;;;21.73;97.14
35551;BME280;21655;46.056;13.616;2023-05-19T11:33:19;100686.06;;;21.39;99.07
35551;BME280;21655;46.056;13.616;2023-05-19T11:35:46;100701.63;;;21.71;99.97
35551;BME280;21655;46.056;13.616;2023-05-19T11:38:12;100690.44;;;21.65;96.88
35551;BME280;21655;46.056;13.616;2023-05-19T11:40:40;100698.03;;;21.53;100.00
35551;BME280;21655;46.056;13.616;2023-05-19T11:43:06;100698.56;;;21.73;100.00
35551;BME280;21655;46.056;13.616;2023-05-19T11:45:32;100690.34;;;21.83;98.59
35551;BME280;21655;46.056;13.616;2023-05-19T11:47:58;100674.13;;;21.90;96.50
35551;BME280;21655;46.056;13.616;2023-05-19T11:50:24;100676.84;;;21.96;89.03
35551;BME280;21655;46.056;13.616;2023-05-19T11:52:51;100686.66;;;21.82;99.81
35551;BME280;21655;46.056;13.616;2023-05-19T11:55:20;100682.63;;;21.78;92.35
35551;BME280;21655;46.056;13.616;2023-05-19T11:58:02;100672.41;;;21.89;91.20
35551;BME280;21655;46.056;13.616;2023-05-19T12:00:29;100672.78;;;22.04;94.89
35551;BME280;21655;46.056;13.616;2023-05-19T12:02:55;100667.00;;;21.64;94.74
35551;BME280;21655;46.056;13.616;2023-05-19T12:05:25;100656.44;;;22.06;97.65
35551;BME280;21655;46.056;13.616;2023-05-19T12:07:51;100668.59;;;21.95;88.68
35551;BME280;21655;46.056;13.616;2023-05-19T12:10:27;100658.09;;;22.53;87.63
35551;BME280;21655;46.056;13.616;2023-05-19T12:12:53;100661.06;;;22.35;92.33
35551;BME280;21655;46.056;13.616;2023-05-19T12:15:22;100656.06;;;22.02;86.05
35551;BME280;21655;46.056;13.616;2023-05-19T12:17:59;100656.19;;;22.70;89.06
35551;BME280;21655;46.056;13.616;2023-05-19T12:20:26;100673.34;;;22.40;87.26
35551;BME280;21655;46.056;13.616;2023-05-19T12:22:54;100665.13;;;22.27;90.49
35551;BME280;21655;46.056;13.616;2023-05-19T12:25:20;100664.72;;;22.47;90.33
35551;BME280;21655;46.056;13.616;2023-05-19T12:27:46;100650.00;;;22.33;84.91
35551;BME280;21655;46.056;13.616;2023-05-19T12:30:15;100671.38;;;22.29;90.21
35551;BME280;21655;46.056;13.616;2023-05-19T12:32:41;100673.47;;;22.45;86.57
35551;BME280;21655;46.056;13.616;2023-05-19T12:35:07;100651.97;;;22.44;78.46
35551;BME280;21655;46.056;13.616;2023-05-19T12:37:33;100635.97;;;22.50;87.95
35551;BME280;21655;46.056;13.616;2023-05-19T12:40:00;100649.38;;;22.43;81.95
35551;BME280;21655;46.056;13.616;2023-05-19T12:42:26;100648.97;;;22.62;88.41
35551;BME280;21655;46.056;13.616;2023-05-19T12:44:58;100646.66;;;22.48;81.16
35551;BME280;21655;46.056;13.616;2023-05-19T12:47:34;100655.91;;;22.20;83.04
35551;BME280;21655;46.056;13.616;2023-05-19T12:50:08;100641.69;;;22.15;80.56
35551;BME280;21655;46.056;13.616;2023-05-19T12:52:41;100659.56;;;22.44;86.72
35551;BME280;21655;46.056;13.616;2023-05-19T12:55:07;100658.53;;;22.10;79.95
35551;BME280;21655;46.056;13.616;2023-05-19T12:57:39;100652.78;;;22.56;86.75
35551;BME280;21655;46.056;13.616;2023-05-19T13:00:07;100647.78;;;23.02;82.64